createdAt,value
2023-08-12T00:01:38.322Z,64.92
2023-08-12T00:04:08.411Z,64.63
2023-08-12T00:06:38.066Z,64.55
2023-08-12T00:09:07.836Z,64.69
2023-08-12T00:11:38.798Z,64.74
2023-08-12T00:14:08.557Z,64.62
2023-08-12T00:16:38.286Z,64.51
2023-08-12T00:19:08.060Z,64.73
2023-08-12T00:21:38.213Z,64.30
2023-08-12T00:24:08.328Z,64.28
2023-08-12T00:26:37.977Z,64.61
2023-08-12T00:29:07.663Z,64.63
2023-08-12T00:31:37.476Z,64.74
2023-08-12T00:34:07.246Z,64.28
2023-08-12T00:36:37.031Z,64.55
2023-08-12T00:39:06.841Z,64.71
2023-08-12T00:41:36.500Z,64.33
2023-08-12T00:44:06.425Z,64.41
2023-08-12T00:46:36.859Z,64.35
2023-08-12T00:49:06.714Z,64.30
2023-08-12T00:51:36.439Z,64.22
2023-08-12T00:54:09.286Z,64.16
2023-08-12T00:56:39.271Z,64.27
2023-08-12T00:59:10.233Z,64.15
2023-08-12T01:01:41.647Z,64.57
2023-08-12T01:04:11.440Z,64.44
2023-08-12T01:06:41.141Z,64.00
2023-08-12T01:09:12.158Z,64.62
2023-08-12T01:12:18.394Z,64.06
2023-08-12T01:15:11.292Z,64.53
2023-08-12T01:17:41.724Z,64.53
2023-08-12T01:20:12.212Z,64.21
2023-08-12T01:22:42.159Z,64.22
2023-08-12T01:25:12.085Z,64.46
2023-08-12T01:27:41.865Z,64.32
2023-08-12T01:30:13.516Z,64.05
2023-08-12T01:32:58.187Z,64.14
2023-08-12T01:35:33.280Z,64.24
2023-08-12T01:38:03.592Z,64.00
2023-08-12T01:40:33.259Z,64.17
2023-08-12T01:43:02.971Z,64.18
2023-08-12T01:45:37.702Z,63.98
2023-08-12T01:48:07.963Z,63.88
2023-08-12T01:50:37.709Z,63.99
2023-08-12T01:53:07.558Z,63.86
2023-08-12T01:55:37.318Z,64.10
2023-08-12T01:58:07.103Z,64.22
2023-08-12T02:00:36.761Z,63.73
2023-08-12T02:03:07.091Z,63.56
2023-08-12T02:05:37.051Z,63.63
2023-08-12T02:08:08.101Z,63.48
2023-08-12T02:10:38.504Z,63.97
2023-08-12T02:13:08.574Z,63.67
2023-08-12T02:15:38.293Z,63.97
2023-08-12T02:18:08.559Z,63.91
2023-08-12T02:20:38.339Z,63.48
2023-08-12T02:23:07.994Z,63.81
2023-08-12T02:25:38.183Z,63.98
2023-08-12T02:28:08.102Z,63.50
2023-08-12T02:30:37.925Z,63.50
2023-08-12T02:33:07.781Z,63.66
2023-08-12T02:35:37.546Z,64.04
2023-08-12T02:38:07.539Z,63.62
2023-08-12T02:40:37.179Z,63.69
2023-08-12T02:43:06.964Z,63.83
2023-08-12T02:45:36.686Z,63.91
2023-08-12T02:48:06.809Z,63.93
2023-08-12T02:50:36.517Z,63.80
2023-08-12T02:53:07.006Z,63.52
2023-08-12T02:55:36.744Z,63.58
2023-08-12T02:58:06.667Z,64.06
2023-08-12T03:00:36.372Z,63.66
2023-08-12T03:03:07.209Z,63.95
2023-08-12T03:05:37.662Z,64.00
2023-08-12T03:08:07.928Z,63.87
2023-08-12T03:10:37.960Z,63.60
2023-08-12T03:13:07.601Z,63.44
2023-08-12T03:15:37.903Z,63.41
2023-08-12T03:18:07.836Z,63.82
2023-08-12T03:20:37.523Z,64.03
2023-08-12T03:23:07.402Z,63.75
2023-08-12T03:25:37.089Z,63.68
2023-08-12T03:28:06.963Z,63.40
2023-08-12T03:30:36.632Z,63.56
2023-08-12T03:33:06.676Z,63.86
2023-08-12T03:35:36.494Z,63.68
2023-08-12T03:38:06.197Z,63.34
2023-08-12T03:40:35.837Z,63.49
2023-08-12T03:43:05.577Z,63.77
2023-08-12T03:45:35.358Z,63.58
2023-08-12T03:48:05.146Z,63.81
2023-08-12T03:50:37.761Z,63.43
2023-08-12T03:53:07.623Z,63.66
2023-08-12T03:55:37.371Z,63.65
2023-08-12T03:58:07.629Z,63.48
2023-08-12T04:00:37.294Z,63.73
2023-08-12T04:03:07.323Z,63.40
2023-08-12T04:05:36.994Z,63.45
2023-08-12T04:08:06.914Z,63.77
2023-08-12T04:10:36.630Z,63.71
2023-08-12T04:13:06.397Z,63.39
2023-08-12T04:15:36.059Z,63.59
2023-08-12T04:18:06.361Z,63.43
2023-08-12T04:20:36.119Z,63.65
2023-08-12T04:23:05.861Z,63.59
2023-08-12T04:25:35.551Z,63.51
2023-08-12T04:28:05.318Z,63.55
2023-08-12T04:30:35.213Z,63.67
2023-08-12T04:33:04.956Z,63.69
2023-08-12T04:35:35.282Z,63.47
2023-08-12T04:38:05.278Z,63.71
2023-08-12T04:40:35.370Z,63.61
2023-08-12T04:43:05.164Z,63.90
2023-08-12T04:45:34.962Z,63.87
2023-08-12T04:48:04.917Z,63.97
2023-08-12T04:50:37.280Z,63.74
2023-08-12T04:53:07.481Z,63.63
2023-08-12T04:55:38.053Z,63.72
2023-08-12T04:58:07.786Z,63.89
2023-08-12T05:00:37.908Z,63.77
2023-08-12T05:03:07.831Z,63.49
2023-08-12T05:05:37.548Z,63.79
2023-08-12T05:08:07.465Z,63.61
2023-08-12T05:10:37.288Z,63.75
2023-08-12T05:13:07.050Z,63.66
2023-08-12T05:15:39.195Z,63.53
2023-08-12T05:18:09.342Z,63.83
2023-08-12T05:20:39.015Z,63.42
2023-08-12T05:23:08.627Z,63.65
2023-08-12T05:25:38.245Z,63.90
2023-08-12T05:28:08.201Z,63.66
2023-08-12T05:30:38.399Z,63.87
2023-08-12T05:33:08.532Z,63.75
2023-08-12T05:35:38.802Z,63.66
2023-08-12T05:38:08.496Z,63.89
2023-08-12T05:40:38.288Z,63.79
2023-08-12T05:43:08.010Z,63.74
2023-08-12T05:45:37.770Z,63.99
2023-08-12T05:48:07.907Z,63.63
2023-08-12T05:50:37.639Z,63.80
2023-08-12T05:53:07.391Z,63.79
2023-08-12T05:55:40.140Z,63.77
2023-08-12T05:58:10.246Z,63.93
2023-08-12T06:00:39.956Z,64.03
2023-08-12T06:03:09.752Z,63.79
2023-08-12T06:05:39.501Z,63.87
2023-08-12T06:08:09.310Z,63.95
2023-08-12T06:10:40.729Z,63.63
2023-08-12T06:13:10.909Z,63.84
2023-08-12T06:15:40.590Z,64.12
2023-08-12T06:18:10.397Z,63.77
2023-08-12T06:20:40.186Z,63.81
2023-08-12T06:23:09.842Z,63.79
2023-08-12T06:25:39.511Z,63.93
2023-08-12T06:28:11.257Z,63.79
2023-08-12T06:30:40.967Z,63.83
2023-08-12T06:33:10.678Z,64.13
2023-08-12T06:35:42.448Z,63.88
2023-08-12T06:38:12.776Z,63.87
2023-08-12T06:40:42.436Z,63.95
2023-08-12T06:43:12.250Z,64.12
2023-08-12T06:45:41.970Z,64.07
2023-08-12T06:48:11.789Z,64.18
2023-08-12T06:50:41.547Z,64.16
2023-08-12T06:53:11.198Z,64.23
2023-08-12T06:55:48.350Z,63.87
2023-08-12T06:58:18.033Z,63.97
2023-08-12T07:00:47.741Z,64.29
2023-08-12T07:03:17.428Z,64.18
2023-08-12T07:05:47.172Z,64.45
2023-08-12T07:08:16.886Z,64.26
2023-08-12T07:10:46.711Z,64.34
2023-08-12T07:13:16.445Z,64.55
2023-08-12T07:15:46.410Z,64.28
2023-08-12T07:18:16.204Z,64.54
2023-08-12T07:20:45.931Z,64.54
2023-08-12T07:23:15.652Z,64.44
2023-08-12T07:25:45.383Z,64.59
2023-08-12T07:28:15.318Z,64.51
2023-08-12T07:30:45.123Z,64.83
2023-08-12T07:33:14.874Z,64.66
2023-08-12T07:35:44.626Z,64.56
2023-08-12T07:38:14.302Z,64.86
2023-08-12T07:40:44.026Z,64.57
2023-08-12T07:43:13.800Z,64.89
2023-08-12T07:45:43.836Z,64.77
2023-08-12T07:48:15.575Z,64.87
2023-08-12T07:50:45.698Z,64.76
2023-08-12T07:53:15.343Z,65.03
2023-08-12T07:55:45.929Z,64.83
2023-08-12T07:58:15.596Z,64.77
2023-08-12T08:00:45.276Z,64.65
2023-08-12T08:03:14.969Z,65.17
2023-08-12T08:05:44.965Z,65.11
2023-08-12T08:08:15.194Z,64.69
2023-08-12T08:10:44.886Z,64.97
2023-08-12T08:13:14.788Z,64.78
2023-08-12T08:15:44.462Z,64.99
2023-08-12T08:18:14.268Z,65.05
2023-08-12T08:20:46.380Z,64.94
2023-08-12T08:23:16.571Z,64.93
2023-08-12T08:25:46.312Z,65.22
2023-08-12T08:28:16.059Z,64.90
2023-08-12T08:30:45.835Z,65.19
2023-08-12T08:33:15.562Z,65.01
2023-08-12T08:35:45.295Z,65.08
2023-08-12T08:38:15.100Z,65.34
2023-08-12T08:40:45.046Z,65.15
2023-08-12T08:43:14.823Z,65.10
2023-08-12T08:45:44.480Z,65.18
2023-08-12T08:48:14.426Z,64.85
2023-08-12T08:50:44.971Z,65.08
2023-08-12T08:53:15.553Z,65.13
2023-08-12T08:55:45.386Z,65.27
2023-08-12T08:58:15.559Z,65.18
2023-08-12T09:00:51.345Z,65.20
2023-08-12T09:03:21.083Z,65.30
2023-08-12T09:05:50.744Z,65.28
2023-08-12T09:08:20.404Z,65.57
2023-08-12T09:10:50.187Z,65.15
2023-08-12T09:13:21.070Z,65.24
2023-08-12T09:15:50.813Z,65.35
2023-08-12T09:18:20.893Z,65.41
2023-08-12T09:20:50.651Z,65.56
2023-08-12T09:23:21.085Z,65.30
2023-08-12T09:25:51.638Z,65.47
2023-08-12T09:28:21.276Z,65.71
2023-08-12T09:30:55.064Z,65.43
2023-08-12T09:33:29.199Z,65.81
2023-08-12T09:35:59.668Z,65.46
2023-08-12T09:38:29.378Z,65.35
2023-08-12T09:40:59.521Z,65.62
2023-08-12T09:43:32.367Z,65.61
2023-08-12T09:46:02.726Z,65.27
2023-08-12T09:48:32.531Z,65.42
2023-08-12T09:51:02.186Z,65.76
2023-08-12T09:53:31.853Z,65.54
2023-08-12T09:56:03.304Z,65.68
2023-08-12T09:58:33.362Z,65.84
2023-08-12T10:01:04.344Z,65.46
2023-08-12T10:03:35.217Z,65.71
2023-08-12T10:06:05.731Z,65.54
2023-08-12T10:08:35.429Z,65.70
2023-08-12T10:11:13.076Z,65.72
2023-08-12T10:13:46.321Z,65.73
2023-08-12T10:16:16.519Z,65.66
2023-08-12T10:18:46.240Z,65.68
2023-08-12T10:21:16.137Z,65.63
2023-08-12T10:23:47.676Z,65.63
2023-08-12T10:26:17.688Z,65.66
2023-08-12T10:28:47.597Z,65.86
2023-08-12T10:31:17.395Z,65.59
2023-08-12T10:33:47.136Z,65.54
2023-08-12T10:36:16.763Z,65.82
2023-08-12T10:38:47.714Z,65.66
2023-08-12T10:41:27.662Z,65.85
2023-08-12T10:44:06.800Z,65.90
2023-08-12T10:46:38.554Z,65.83
2023-08-12T10:49:09.063Z,65.79
2023-08-12T10:51:48.904Z,65.66
2023-08-12T10:54:29.339Z,65.66
2023-08-12T10:57:10.775Z,65.91
2023-08-12T10:59:49.700Z,65.68
2023-08-12T11:02:28.856Z,65.63
2023-08-12T11:05:05.565Z,65.71
2023-08-12T11:07:45.633Z,65.64
2023-08-12T11:10:15.630Z,65.80
2023-08-12T11:12:50.932Z,65.76
2023-08-12T11:15:22.330Z,65.70
2023-08-12T11:17:52.127Z,65.67
2023-08-12T11:20:21.803Z,65.45
2023-08-12T11:22:51.480Z,65.79
2023-08-12T11:25:21.276Z,65.63
2023-08-12T11:27:51.412Z,65.39
2023-08-12T11:30:22.959Z,65.29
2023-08-12T11:32:56.393Z,65.10
2023-08-12T11:35:27.010Z,65.47
2023-08-12T11:38:00.778Z,65.53
2023-08-12T11:40:31.768Z,65.36
2023-08-12T11:43:01.435Z,65.32
2023-08-12T11:45:31.183Z,65.38
2023-08-12T11:48:00.935Z,65.58
2023-08-12T11:50:30.772Z,65.31
2023-08-12T11:53:01.208Z,65.60
2023-08-12T11:55:30.838Z,65.17
2023-08-12T11:58:01.698Z,65.25
2023-08-12T12:00:31.405Z,65.77
2023-08-12T12:03:01.176Z,65.34
2023-08-12T12:05:32.813Z,65.38
2023-08-12T12:08:07.853Z,65.26
2023-08-12T12:10:38.286Z,65.25
2023-08-12T12:13:08.899Z,65.06
2023-08-12T12:15:47.529Z,65.44
2023-08-12T12:18:17.375Z,65.53
2023-08-12T12:21:06.985Z,65.43
2023-08-12T12:23:38.419Z,65.11
2023-08-12T12:26:08.103Z,65.28
2023-08-12T12:28:37.732Z,65.22
2023-08-12T12:31:07.448Z,64.90
2023-08-12T12:33:37.233Z,64.95
2023-08-12T12:36:07.325Z,65.12
2023-08-12T12:38:36.961Z,65.29
2023-08-12T12:41:06.691Z,65.09
2023-08-12T12:43:36.407Z,65.35
2023-08-12T12:46:06.263Z,64.73
2023-08-12T12:48:36.009Z,65.00
2023-08-12T12:51:05.798Z,65.16
2023-08-12T12:53:35.519Z,65.04
2023-08-12T12:56:06.538Z,64.87
2023-08-12T12:58:39.987Z,64.86
2023-08-12T13:01:09.786Z,65.08
2023-08-12T13:03:39.628Z,65.21
2023-08-12T13:06:10.093Z,65.02
2023-08-12T13:08:39.885Z,64.95
2023-08-12T13:11:09.553Z,64.91
2023-08-12T13:13:39.266Z,64.87
2023-08-12T13:16:10.851Z,64.75
2023-08-12T13:18:40.555Z,64.70
2023-08-12T13:21:10.236Z,64.88
2023-08-12T13:23:42.742Z,64.83
2023-08-12T13:26:12.509Z,64.98
2023-08-12T13:28:42.231Z,64.96
2023-08-12T13:31:12.037Z,64.93
2023-08-12T13:33:41.811Z,64.92
2023-08-12T13:36:11.624Z,64.93
2023-08-12T13:38:41.253Z,64.56
2023-08-12T13:41:10.982Z,64.69
2023-08-12T13:43:40.759Z,64.92
2023-08-12T13:46:11.200Z,64.41
2023-08-12T13:48:40.903Z,64.56
2023-08-12T13:51:10.603Z,64.76
2023-08-12T13:53:40.728Z,64.60
2023-08-12T13:56:10.507Z,64.47
2023-08-12T13:58:40.410Z,64.53
2023-08-12T14:01:11.311Z,64.71
2023-08-12T14:03:41.470Z,64.69
2023-08-12T14:06:11.244Z,64.37
2023-08-12T14:08:40.970Z,64.54
2023-08-12T14:11:10.624Z,64.96
2023-08-12T14:13:40.278Z,64.71
2023-08-12T14:16:10.031Z,64.70
2023-08-12T14:18:39.686Z,64.64
2023-08-12T14:21:09.346Z,64.58
2023-08-12T14:23:39.020Z,64.50
2023-08-12T14:26:08.741Z,64.29
2023-08-12T14:28:38.445Z,64.35
2023-08-12T14:31:08.167Z,64.41
2023-08-12T14:33:39.948Z,64.71
2023-08-12T14:36:09.879Z,64.81
2023-08-12T14:38:39.597Z,64.51
2023-08-12T14:41:09.483Z,64.56
2023-08-12T14:43:39.667Z,64.43
2023-08-12T14:46:09.472Z,64.43
2023-08-12T14:48:39.177Z,64.29
2023-08-12T14:51:08.813Z,64.47
2023-08-12T14:53:38.520Z,64.76
2023-08-12T14:56:08.409Z,64.51
2023-08-12T14:58:38.547Z,64.41
2023-08-12T15:01:08.256Z,64.55
2023-08-12T15:03:38.150Z,64.47
2023-08-12T15:06:08.572Z,64.65
2023-08-12T15:08:38.264Z,64.59
2023-08-12T15:11:07.952Z,64.54
2023-08-12T15:13:37.641Z,64.23
2023-08-12T15:16:07.872Z,64.48
2023-08-12T15:18:37.748Z,64.36
2023-08-12T15:21:07.387Z,64.33
2023-08-12T15:23:37.869Z,64.19
2023-08-12T15:26:08.251Z,64.44
2023-08-12T15:28:37.934Z,64.32
2023-08-12T15:31:07.635Z,64.31
2023-08-12T15:33:37.360Z,64.50
2023-08-12T15:36:07.443Z,64.38
2023-08-12T15:38:37.198Z,64.28
2023-08-12T15:41:18.904Z,64.68
2023-08-12T15:43:48.598Z,64.15
2023-08-12T15:46:18.771Z,64.57
2023-08-12T15:48:48.537Z,64.20
2023-08-12T15:51:18.225Z,64.17
2023-08-12T15:53:47.932Z,64.31
2023-08-12T15:56:17.611Z,64.26
2023-08-12T15:58:47.298Z,64.20
2023-08-12T16:01:17.055Z,64.55
2023-08-12T16:03:47.197Z,64.29
2023-08-12T16:06:17.008Z,64.25
2023-08-12T16:08:56.896Z,64.51
2023-08-12T16:11:35.125Z,64.58
2023-08-12T16:14:04.771Z,64.34
2023-08-12T16:16:34.930Z,64.27
2023-08-12T16:19:04.893Z,64.12
2023-08-12T16:21:34.592Z,64.52
2023-08-12T16:24:04.677Z,64.43
2023-08-12T16:26:34.354Z,64.44
2023-08-12T16:29:04.273Z,64.39
2023-08-12T16:31:34.088Z,64.66
2023-08-12T16:34:03.841Z,64.16
2023-08-12T16:36:33.538Z,64.48
2023-08-12T16:39:03.257Z,63.94
2023-08-12T16:41:32.938Z,64.45
2023-08-12T16:44:02.676Z,64.25
2023-08-12T16:46:32.511Z,64.18
2023-08-12T16:49:02.211Z,64.41
2023-08-12T16:51:32.064Z,64.43
2023-08-12T16:54:01.719Z,64.52
2023-08-12T16:56:31.462Z,64.43
2023-08-12T16:59:01.489Z,64.19
2023-08-12T17:01:31.200Z,64.50
2023-08-12T17:04:02.226Z,64.19
2023-08-12T17:06:32.010Z,64.76
2023-08-12T17:09:01.673Z,64.50
2023-08-12T17:11:31.340Z,64.36
2023-08-12T17:14:01.060Z,64.33
2023-08-12T17:16:30.812Z,64.53
2023-08-12T17:19:00.464Z,64.34
2023-08-12T17:21:30.136Z,64.30
2023-08-12T17:23:59.880Z,64.54
2023-08-12T17:26:29.531Z,64.43
2023-08-12T17:28:59.198Z,64.11
2023-08-12T17:31:28.862Z,64.38
2023-08-12T17:33:58.550Z,64.45
2023-08-12T17:36:28.201Z,64.13
2023-08-12T17:38:57.904Z,64.28
2023-08-12T17:41:27.565Z,64.52
2023-08-12T17:43:57.260Z,64.19
2023-08-12T17:46:27.038Z,64.55
2023-08-12T17:48:56.923Z,64.64
2023-08-12T17:51:26.604Z,64.32
2023-08-12T17:53:56.323Z,64.23
2023-08-12T17:56:26.055Z,64.48
2023-08-12T17:58:55.769Z,64.37
2023-08-12T18:01:25.423Z,64.18
2023-08-12T18:03:57.364Z,64.48
2023-08-12T18:06:27.362Z,64.27
2023-08-12T18:08:57.094Z,64.26
2023-08-12T18:11:26.766Z,64.41
2023-08-12T18:13:56.467Z,64.54
2023-08-12T18:16:26.128Z,64.50
2023-08-12T18:18:55.849Z,64.30
2023-08-12T18:21:25.634Z,64.66
2023-08-12T18:23:55.297Z,64.10
2023-08-12T18:26:24.976Z,64.16
2023-08-12T18:28:54.657Z,64.23
2023-08-12T18:31:24.317Z,64.24
2023-08-12T18:33:54.028Z,64.55
2023-08-12T18:36:23.702Z,64.62
2023-08-12T18:38:53.369Z,64.43
2023-08-12T18:41:23.162Z,64.38
2023-08-12T18:43:52.867Z,64.71
2023-08-12T18:46:22.548Z,64.32
2023-08-12T18:48:52.258Z,64.57
2023-08-12T18:51:22.921Z,64.14
2023-08-12T18:53:52.582Z,64.25
2023-08-12T18:56:22.387Z,64.58
2023-08-12T18:58:54.880Z,64.59
2023-08-12T19:01:24.984Z,64.42
2023-08-12T19:03:55.150Z,64.42
2023-08-12T19:06:24.805Z,64.17
2023-08-12T19:08:54.507Z,64.53
2023-08-12T19:11:25.131Z,64.46
2023-08-12T19:13:54.847Z,64.47
2023-08-12T19:16:24.588Z,64.55
2023-08-12T19:18:54.298Z,64.37
2023-08-12T19:21:23.999Z,64.64
2023-08-12T19:23:53.754Z,64.84
2023-08-12T19:26:23.502Z,64.35
2023-08-12T19:28:53.693Z,64.32
2023-08-12T19:31:23.440Z,64.58
2023-08-12T19:33:53.226Z,64.31
2023-08-12T19:36:22.936Z,64.30
2023-08-12T19:38:52.564Z,64.60
2023-08-12T19:41:22.266Z,64.64
2023-08-12T19:43:51.882Z,64.66
2023-08-12T19:46:21.557Z,64.84
2023-08-12T19:48:51.236Z,64.53
2023-08-12T19:51:20.919Z,64.70
2023-08-12T19:53:50.683Z,64.70
2023-08-12T19:56:20.401Z,64.39
2023-08-12T19:58:50.067Z,64.70
2023-08-12T20:01:19.786Z,64.52
2023-08-12T20:03:49.589Z,64.71
2023-08-12T20:06:19.241Z,64.64
2023-08-12T20:08:48.945Z,64.62
2023-08-12T20:11:18.683Z,64.67
2023-08-12T20:13:48.336Z,64.61
2023-08-12T20:16:18.160Z,64.57
2023-08-12T20:18:47.891Z,64.79
2023-08-12T20:21:17.657Z,64.61
2023-08-12T20:23:47.361Z,64.45
2023-08-12T20:26:17.129Z,64.71
2023-08-12T20:28:46.816Z,64.61
2023-08-12T20:31:16.454Z,64.51
2023-08-12T20:33:46.123Z,64.67
2023-08-12T20:36:15.895Z,64.50
2023-08-12T20:38:45.737Z,64.89
2023-08-12T20:41:15.352Z,64.75
2023-08-12T20:43:45.085Z,64.46
2023-08-12T20:46:14.734Z,64.70
2023-08-12T20:48:44.406Z,64.59
2023-08-12T20:51:14.106Z,64.64
2023-08-12T20:53:43.844Z,64.70
2023-08-12T20:56:14.016Z,64.50
2023-08-12T20:58:43.724Z,64.89
2023-08-12T21:01:13.419Z,64.76
2023-08-12T21:03:43.131Z,64.50
2023-08-12T21:06:12.957Z,64.91
2023-08-12T21:08:42.710Z,64.50
2023-08-12T21:11:14.086Z,64.63
2023-08-12T21:13:43.811Z,64.85
2023-08-12T21:16:13.536Z,64.79
2023-08-12T21:18:43.348Z,64.81
2023-08-12T21:21:13.159Z,64.49
2023-08-12T21:23:42.857Z,64.63
2023-08-12T21:26:12.649Z,64.73
2023-08-12T21:28:45.138Z,64.71
2023-08-12T21:31:14.882Z,64.87
2023-08-12T21:33:44.564Z,64.62
2023-08-12T21:36:14.207Z,64.77
2023-08-12T21:38:43.894Z,64.52
2023-08-12T21:41:13.512Z,64.72
2023-08-12T21:43:43.245Z,64.60
2023-08-12T21:46:12.991Z,64.79
2023-08-12T21:48:42.951Z,64.61
2023-08-12T21:51:14.593Z,64.42
2023-08-12T21:53:47.103Z,65.07
2023-08-12T21:56:16.742Z,64.61
2023-08-12T21:58:46.720Z,64.98
2023-08-12T22:01:16.556Z,65.33
2023-08-12T22:03:46.285Z,64.50
2023-08-12T22:06:16.045Z,64.63
2023-08-12T22:08:45.698Z,64.84
2023-08-12T22:11:15.394Z,64.87
2023-08-12T22:13:45.089Z,65.01
2023-08-12T22:16:15.046Z,64.63
2023-08-12T22:18:44.748Z,65.14
2023-08-12T22:21:14.464Z,64.59
2023-08-12T22:23:44.161Z,64.77
2023-08-12T22:26:13.826Z,64.55
2023-08-12T22:28:43.493Z,64.65
2023-08-12T22:31:13.258Z,64.81
2023-08-12T22:33:42.953Z,64.70
2023-08-12T22:36:12.838Z,64.37
2023-08-12T22:38:42.584Z,64.84
2023-08-12T22:41:12.206Z,64.88
2023-08-12T22:43:41.922Z,64.51
2023-08-12T22:46:11.594Z,64.56
2023-08-12T22:48:41.930Z,64.77
2023-08-12T22:51:11.604Z,64.51
2023-08-12T22:53:41.303Z,64.52
2023-08-12T22:56:11.085Z,64.66
2023-08-12T22:58:40.811Z,64.70
2023-08-12T23:01:10.527Z,64.99
2023-08-12T23:03:40.283Z,65.00
2023-08-12T23:06:09.985Z,64.77
2023-08-12T23:08:39.770Z,64.91
2023-08-12T23:11:09.460Z,65.07
2023-08-12T23:13:39.131Z,64.88
2023-08-12T23:16:08.911Z,64.72
2023-08-12T23:18:38.703Z,64.73
2023-08-12T23:21:08.357Z,65.15
2023-08-12T23:23:38.035Z,64.75
2023-08-12T23:26:07.787Z,65.13
2023-08-12T23:28:37.454Z,65.21
2023-08-12T23:31:07.336Z,65.36
2023-08-12T23:33:37.067Z,65.53
2023-08-12T23:36:07.060Z,65.23
2023-08-12T23:38:36.734Z,65.33
2023-08-12T23:41:06.403Z,65.56
2023-08-12T23:43:36.135Z,65.31
2023-08-12T23:46:05.984Z,65.73
2023-08-12T23:48:35.792Z,65.40
2023-08-12T23:51:05.490Z,65.65
2023-08-12T23:53:35.177Z,65.23
2023-08-12T23:56:05.214Z,65.45
2023-08-12T23:58:34.855Z,65.62
